sensor_id;sensor_type;location;lat;lon;timestamp;pressure;altitude;pressure_sealevel;temperature;humidity
67430;BME280;54298;52.076;5.264;2023-01-27T00:00:14;102476.0;;;6.2;78.75
67430;BME280;54298;52.076;5.264;2023-01-27T00:01:51;102478.0;;;6.19;78.47
67430;BME280;54298;52.076;5.264;2023-01-27T00:03:27;102476.0;;;6.04;79.14
67430;BME280;54298;52.076;5.264;2023-01-27T00:05:04;102476.0;;;5.88;79.53
67430;BME280;54298;52.076;5.264;2023-01-27T00:08:17;102476.0;;;5.94;79.42
67430;BME280;54298;52.076;5.264;2023-01-27T00:09:54;102478.0;;;5.96;78.97
67430;BME280;54298;52.076;5.264;2023-01-27T00:13:51;102468.0;;;5.97;78.72
67430;BME280;54298;52.076;5.264;2023-01-27T00:15:27;102473.0;;;5.77;78.75
67430;BME280;54298;52.076;5.264;2023-01-27T00:18:41;102463.00000000001;;;5.97;77.98
67430;BME280;54298;52.076;5.264;2023-01-27T00:24:45;102471.0;;;5.65;78.14
67430;BME280;54298;52.076;5.264;2023-01-27T00:26:21;102476.0;;;5.69;78.17
67430;BME280;54298;52.076;5.264;2023-01-27T00:29:34;102461.99999999999;;;5.7;78.23
67430;BME280;54298;52.076;5.264;2023-01-27T00:33:32;102467.0;;;5.77;77.94
67430;BME280;54298;52.076;5.264;2023-01-27T00:35:10;102459.99999999999;;;5.86;77.83
67430;BME280;54298;52.076;5.264;2023-01-27T00:36:48;102459.99999999999;;;5.91;77.69
67430;BME280;54298;52.076;5.264;2023-01-27T00:40:04;102463.00000000001;;;6.02;77.19
67430;BME280;54298;52.076;5.264;2023-01-27T00:41:40;102467.0;;;6.02;77.19
67430;BME280;54298;52.076;5.264;2023-01-27T00:43:17;102461.99999999999;;;6.06;76.97
67430;BME280;54298;52.076;5.264;2023-01-27T00:45:57;102470.0;;;5.94;77.22
67430;BME280;54298;52.076;5.264;2023-01-27T00:47:34;102467.0;;;5.96;77.27
67430;BME280;54298;52.076;5.264;2023-01-27T00:49:12;102475.0;;;5.95;77.74
67430;BME280;54298;52.076;5.264;2023-01-27T00:52:24;102479.0;;;5.88;78.05
67430;BME280;54298;52.076;5.264;2023-01-27T00:54:02;102477.0;;;5.75;78.16
67430;BME280;54298;52.076;5.264;2023-01-27T00:55:38;102470.0;;;5.88;78.03
67430;BME280;54298;52.076;5.264;2023-01-27T00:57:16;102474.0;;;6.03;77.5
67430;BME280;54298;52.076;5.264;2023-01-27T01:00:28;102486.99999999999;;;5.67;78.36
67430;BME280;54298;52.076;5.264;2023-01-27T01:02:04;102473.0;;;5.71;78.33
67430;BME280;54298;52.076;5.264;2023-01-27T01:03:42;102479.0;;;5.56;78.58
67430;BME280;54298;52.076;5.264;2023-01-27T01:06:54;102482.0;;;5.49;78.83
67430;BME280;54298;52.076;5.264;2023-01-27T01:08:31;102484.99999999999;;;5.65;78.33
67430;BME280;54298;52.076;5.264;2023-01-27T01:10:09;102483.99999999999;;;5.61;78.86
67430;BME280;54298;52.076;5.264;2023-01-27T01:13:22;102493.0;;;5.54;78.86
67430;BME280;54298;52.076;5.264;2023-01-27T01:14:58;102513.00000000001;;;5.32;79.22
67430;BME280;54298;52.076;5.264;2023-01-27T01:16:34;102492.0;;;5.08;80.36
67430;BME280;54298;52.076;5.264;2023-01-27T01:19:47;102498.0;;;5.24;79.88
67430;BME280;54298;52.076;5.264;2023-01-27T01:21:23;102502.0;;;5.28;79.52
67430;BME280;54298;52.076;5.264;2023-01-27T01:23:00;102499.0;;;5.28;79.28
67430;BME280;54298;52.076;5.264;2023-01-27T01:24:36;102511.99999999999;;;5.18;78.8
67430;BME280;54298;52.076;5.264;2023-01-27T01:27:51;102509.99999999999;;;5.31;78.81
67430;BME280;54298;52.076;5.264;2023-01-27T01:29:27;102509.99999999999;;;5.26;78.86
67430;BME280;54298;52.076;5.264;2023-01-27T01:31:04;102503.0;;;5.44;78.52
67430;BME280;54298;52.076;5.264;2023-01-27T01:34:20;102498.0;;;5.38;78.25
67430;BME280;54298;52.076;5.264;2023-01-27T01:36:02;102508.99999999999;;;5.56;78.24
67430;BME280;54298;52.076;5.264;2023-01-27T01:37:39;102502.0;;;5.51;77.69
67430;BME280;54298;52.076;5.264;2023-01-27T01:39:15;102507.0;;;5.59;77.64
67430;BME280;54298;52.076;5.264;2023-01-27T01:42:47;102505.0;;;5.55;77.7
67430;BME280;54298;52.076;5.264;2023-01-27T01:44:26;102508.99999999999;;;5.61;77.44
67430;BME280;54298;52.076;5.264;2023-01-27T01:46:04;102509.99999999999;;;5.66;77.62
67430;BME280;54298;52.076;5.264;2023-01-27T01:47:40;102509.99999999999;;;5.54;77.52
67430;BME280;54298;52.076;5.264;2023-01-27T01:51:00;102508.0;;;5.59;77.5
67430;BME280;54298;52.076;5.264;2023-01-27T01:52:38;102508.0;;;5.56;77.83
67430;BME280;54298;52.076;5.264;2023-01-27T01:54:16;102508.0;;;5.69;77.3
67430;BME280;54298;52.076;5.264;2023-01-27T01:55:55;102513.00000000001;;;5.6;77.77
67430;BME280;54298;52.076;5.264;2023-01-27T01:59:13;102508.0;;;5.73;77.37
67430;BME280;54298;52.076;5.264;2023-01-27T02:00:52;102511.99999999999;;;5.59;77.3
67430;BME280;54298;52.076;5.264;2023-01-27T02:02:28;102516.00000000001;;;5.67;77.28
67430;BME280;54298;52.076;5.264;2023-01-27T02:05:50;102517.0;;;5.77;77.08
67430;BME280;54298;52.076;5.264;2023-01-27T02:07:32;102516.00000000001;;;5.67;77.16
67430;BME280;54298;52.076;5.264;2023-01-27T02:09:11;102501.0;;;5.68;77.19
67430;BME280;54298;52.076;5.264;2023-01-27T02:10:48;102508.99999999999;;;5.52;77.33
67430;BME280;54298;52.076;5.264;2023-01-27T02:14:01;102518.0;;;5.56;77.3
67430;BME280;54298;52.076;5.264;2023-01-27T02:15:38;102518.0;;;5.54;77.22
67430;BME280;54298;52.076;5.264;2023-01-27T02:17:15;102523.0;;;5.6;76.52
67430;BME280;54298;52.076;5.264;2023-01-27T02:18:52;102528.0;;;5.45;76.5
67430;BME280;54298;52.076;5.264;2023-01-27T02:22:21;102515.00000000001;;;5.34;76.8
67430;BME280;54298;52.076;5.264;2023-01-27T02:24:00;102513.00000000001;;;5.58;75.72
67430;BME280;54298;52.076;5.264;2023-01-27T02:25:45;102517.0;;;5.44;76.22
67430;BME280;54298;52.076;5.264;2023-01-27T02:27:23;102515.00000000001;;;5.69;75.3
67430;BME280;54298;52.076;5.264;2023-01-27T02:30:40;102523.0;;;5.59;75.62
67430;BME280;54298;52.076;5.264;2023-01-27T02:32:24;102529.0;;;5.34;75.97
67430;BME280;54298;52.076;5.264;2023-01-27T02:34:04;102521.0;;;5.45;75.99
67430;BME280;54298;52.076;5.264;2023-01-27T02:35:43;102528.0;;;5.3;76.28
67430;BME280;54298;52.076;5.264;2023-01-27T02:39:07;102518.0;;;5.28;76.41
67430;BME280;54298;52.076;5.264;2023-01-27T02:40:47;102532.0;;;5.08;77.09
67430;BME280;54298;52.076;5.264;2023-01-27T02:42:27;102533.0;;;4.96;78.08
67430;BME280;54298;52.076;5.264;2023-01-27T02:44:04;102528.0;;;4.99;78.22
67430;BME280;54298;52.076;5.264;2023-01-27T02:47:17;102528.0;;;4.95;78.3
67430;BME280;54298;52.076;5.264;2023-01-27T02:48:53;102533.99999999999;;;4.99;78.11
67430;BME280;54298;52.076;5.264;2023-01-27T02:50:30;102525.0;;;4.97;78.47
67430;BME280;54298;52.076;5.264;2023-01-27T02:53:43;102539.00000000001;;;4.67;79.52
67430;BME280;54298;52.076;5.264;2023-01-27T02:55:21;102534.99999999999;;;4.84;79.16
67430;BME280;54298;52.076;5.264;2023-01-27T02:56:58;102533.0;;;5.01;78.69
67430;BME280;54298;52.076;5.264;2023-01-27T03:00:12;102533.99999999999;;;5.07;78.27
67430;BME280;54298;52.076;5.264;2023-01-27T03:01:49;102540.00000000001;;;5.22;77.91
67430;BME280;54298;52.076;5.264;2023-01-27T03:03:25;102548.0;;;5.12;77.91
67430;BME280;54298;52.076;5.264;2023-01-27T03:05:01;102549.0;;;4.93;78.67
67430;BME280;54298;52.076;5.264;2023-01-27T03:08:14;102549.0;;;4.91;79.13
67430;BME280;54298;52.076;5.264;2023-01-27T03:09:50;102548.0;;;4.95;78.94
67430;BME280;54298;52.076;5.264;2023-01-27T03:12:30;102550.0;;;5.12;78.59
67430;BME280;54298;52.076;5.264;2023-01-27T03:14:06;102549.0;;;5.13;78.5
67430;BME280;54298;52.076;5.264;2023-01-27T03:19:52;102548.0;;;5.26;77.88
67430;BME280;54298;52.076;5.264;2023-01-27T03:23:05;102552.0;;;5.41;77.52
67430;BME280;54298;52.076;5.264;2023-01-27T03:24:41;102563.00000000001;;;5.42;77.44
67430;BME280;54298;52.076;5.264;2023-01-27T03:26:18;102561.99999999999;;;5.35;77.48
67430;BME280;54298;52.076;5.264;2023-01-27T03:27:54;102561.99999999999;;;5.51;77.02
67430;BME280;54298;52.076;5.264;2023-01-27T03:31:41;102555.0;;;5.32;77.53
67430;BME280;54298;52.076;5.264;2023-01-27T03:33:17;102564.00000000001;;;5.15;78.03
67430;BME280;54298;52.076;5.264;2023-01-27T03:34:56;102559.99999999999;;;5.09;77.91
67430;BME280;54298;52.076;5.264;2023-01-27T03:47:33;102567.0;;;5.12;78.06
67430;BME280;54298;52.076;5.264;2023-01-27T03:49:09;102566.00000000001;;;5.07;78.31
67430;BME280;54298;52.076;5.264;2023-01-27T03:52:32;102575.0;;;5.16;77.56
67430;BME280;54298;52.076;5.264;2023-01-27T03:54:09;102568.0;;;5.13;77.62
67430;BME280;54298;52.076;5.264;2023-01-27T03:55:45;102576.0;;;4.97;78.14
67430;BME280;54298;52.076;5.264;2023-01-27T03:57:22;102564.00000000001;;;4.87;78.11
67430;BME280;54298;52.076;5.264;2023-01-27T04:00:34;102572.0;;;5.03;77.69
67430;BME280;54298;52.076;5.264;2023-01-27T04:06:53;102573.0;;;5.29;75.97
67430;BME280;54298;52.076;5.264;2023-01-27T04:08:29;102576.0;;;5.05;76.42
67430;BME280;54298;52.076;5.264;2023-01-27T04:10:06;102582.0;;;5.36;75.55
67430;BME280;54298;52.076;5.264;2023-01-27T04:13:38;102580.0;;;5.35;75.74
67430;BME280;54298;52.076;5.264;2023-01-27T04:15:16;102577.0;;;5.21;75.24
67430;BME280;54298;52.076;5.264;2023-01-27T04:16:55;102582.0;;;5.12;74.75
67430;BME280;54298;52.076;5.264;2023-01-27T04:18:32;102588.00000000001;;;5.3;74.23
67430;BME280;54298;52.076;5.264;2023-01-27T04:21:46;102584.99999999999;;;5.35;74.16
67430;BME280;54298;52.076;5.264;2023-01-27T04:23:23;102590.00000000001;;;5.16;74.52
67430;BME280;54298;52.076;5.264;2023-01-27T04:24:59;102583.0;;;5.11;74.03
67430;BME280;54298;52.076;5.264;2023-01-27T04:26:35;102584.99999999999;;;5.12;74.02
67430;BME280;54298;52.076;5.264;2023-01-27T04:29:47;102592.0;;;5.16;73.89
67430;BME280;54298;52.076;5.264;2023-01-27T04:31:24;102593.0;;;5.05;74.22
67430;BME280;54298;52.076;5.264;2023-01-27T04:33:03;102597.0;;;4.91;74.12
67430;BME280;54298;52.076;5.264;2023-01-27T04:36:17;102594.0;;;5.19;74.09
67430;BME280;54298;52.076;5.264;2023-01-27T04:37:53;102601.0;;;5.25;73.88
67430;BME280;54298;52.076;5.264;2023-01-27T04:39:30;102604.0;;;5.44;73.02
67430;BME280;54298;52.076;5.264;2023-01-27T04:41:06;102601.0;;;5.55;73.08
67430;BME280;54298;52.076;5.264;2023-01-27T04:44:20;102606.0;;;5.54;72.72
67430;BME280;54298;52.076;5.264;2023-01-27T04:45:56;102601.0;;;5.57;72.69
67430;BME280;54298;52.076;5.264;2023-01-27T04:47:32;102603.0;;;5.59;72.47
67430;BME280;54298;52.076;5.264;2023-01-27T04:50:45;102604.0;;;5.78;72.02
67430;BME280;54298;52.076;5.264;2023-01-27T04:52:21;102607.0;;;5.76;71.91
67430;BME280;54298;52.076;5.264;2023-01-27T04:53:57;102605.0;;;5.76;71.81
67430;BME280;54298;52.076;5.264;2023-01-27T04:57:10;102614.00000000001;;;5.8;71.66
67430;BME280;54298;52.076;5.264;2023-01-27T04:58:47;102605.0;;;5.53;72.23
67430;BME280;54298;52.076;5.264;2023-01-27T05:00:24;102606.0;;;5.7;71.74
67430;BME280;54298;52.076;5.264;2023-01-27T05:03:39;102607.0;;;5.63;71.69
67430;BME280;54298;52.076;5.264;2023-01-27T05:05:15;102604.0;;;5.62;71.53
67430;BME280;54298;52.076;5.264;2023-01-27T05:06:51;102605.0;;;5.65;72.13
67430;BME280;54298;52.076;5.264;2023-01-27T05:08:29;102607.0;;;5.6;71.58
67430;BME280;54298;52.076;5.264;2023-01-27T05:11:44;102601.0;;;5.68;71.38
67430;BME280;54298;52.076;5.264;2023-01-27T05:13:20;102613.00000000001;;;5.65;71.52
67430;BME280;54298;52.076;5.264;2023-01-27T05:14:56;102613.00000000001;;;5.51;71.89
67430;BME280;54298;52.076;5.264;2023-01-27T05:18:09;102607.0;;;5.47;72.05
67430;BME280;54298;52.076;5.264;2023-01-27T05:19:45;102611.99999999999;;;5.55;71.88
67430;BME280;54298;52.076;5.264;2023-01-27T05:21:24;102615.00000000001;;;5.49;71.75
67430;BME280;54298;52.076;5.264;2023-01-27T05:23:34;102615.00000000001;;;5.56;72.05
67430;BME280;54298;52.076;5.264;2023-01-27T05:25:42;102615.00000000001;;;5.46;71.66
67430;BME280;54298;52.076;5.264;2023-01-27T05:27:19;102620.0;;;5.42;71.97
67430;BME280;54298;52.076;5.264;2023-01-27T05:30:33;102621.0;;;5.46;71.86
67430;BME280;54298;52.076;5.264;2023-01-27T05:32:09;102629.0;;;5.41;71.55
67430;BME280;54298;52.076;5.264;2023-01-27T05:33:47;102628.0;;;5.56;71.86
67430;BME280;54298;52.076;5.264;2023-01-27T05:37:00;102633.99999999999;;;5.48;71.77
67430;BME280;54298;52.076;5.264;2023-01-27T05:38:36;102629.0;;;5.38;72.05
67430;BME280;54298;52.076;5.264;2023-01-27T05:40:12;102626.0;;;5.22;72.69
67430;BME280;54298;52.076;5.264;2023-01-27T05:41:49;102629.0;;;5.63;71.83
67430;BME280;54298;52.076;5.264;2023-01-27T05:45:03;102631.0;;;5.59;71.64
67430;BME280;54298;52.076;5.264;2023-01-27T05:46:40;102632.0;;;5.46;72.19
67430;BME280;54298;52.076;5.264;2023-01-27T05:48:17;102630.0;;;5.74;71.37
67430;BME280;54298;52.076;5.264;2023-01-27T05:51:31;102629.0;;;5.57;71.3
67430;BME280;54298;52.076;5.264;2023-01-27T05:53:08;102632.0;;;5.52;71.64
67430;BME280;54298;52.076;5.264;2023-01-27T05:54:44;102634.99999999999;;;5.46;72.2
67430;BME280;54298;52.076;5.264;2023-01-27T05:57:58;102634.99999999999;;;5.3;72.16
67430;BME280;54298;52.076;5.264;2023-01-27T05:59:34;102642.0;;;5.37;72.36
67430;BME280;54298;52.076;5.264;2023-01-27T06:01:12;102643.0;;;5.4;71.92
67430;BME280;54298;52.076;5.264;2023-01-27T06:02:49;102646.0;;;5.48;71.97
67430;BME280;54298;52.076;5.264;2023-01-27T06:06:03;102645.0;;;5.48;72.12
67430;BME280;54298;52.076;5.264;2023-01-27T06:07:40;102649.0;;;5.41;72.08
67430;BME280;54298;52.076;5.264;2023-01-27T06:09:17;102643.0;;;5.45;72.11
67430;BME280;54298;52.076;5.264;2023-01-27T06:12:29;102647.0;;;5.48;72.14
67430;BME280;54298;52.076;5.264;2023-01-27T06:14:05;102649.0;;;5.53;71.66
67430;BME280;54298;52.076;5.264;2023-01-27T06:15:43;102654.0;;;5.44;71.59
67430;BME280;54298;52.076;5.264;2023-01-27T06:17:20;102654.0;;;5.41;71.56
67430;BME280;54298;52.076;5.264;2023-01-27T06:20:33;102655.0;;;5.42;71.83
67430;BME280;54298;52.076;5.264;2023-01-27T06:22:10;102653.0;;;5.62;71.17
67430;BME280;54298;52.076;5.264;2023-01-27T06:23:46;102661.99999999999;;;5.67;71.11
67430;BME280;54298;52.076;5.264;2023-01-27T06:26:59;102658.99999999999;;;5.71;70.67
67430;BME280;54298;52.076;5.264;2023-01-27T06:28:35;102663.00000000001;;;5.52;70.83
67430;BME280;54298;52.076;5.264;2023-01-27T06:30:13;102665.00000000001;;;5.61;70.66
67430;BME280;54298;52.076;5.264;2023-01-27T06:33:25;102666.00000000001;;;5.56;70.47
67430;BME280;54298;52.076;5.264;2023-01-27T06:35:02;102666.00000000001;;;5.51;70.24
67430;BME280;54298;52.076;5.264;2023-01-27T06:36:39;102672.0;;;5.64;69.99
67430;BME280;54298;52.076;5.264;2023-01-27T06:39:52;102674.0;;;5.52;70.02
67430;BME280;54298;52.076;5.264;2023-01-27T06:41:28;102677.0;;;5.32;70.5
67430;BME280;54298;52.076;5.264;2023-01-27T06:43:09;102679.0;;;5.31;70.98
67430;BME280;54298;52.076;5.264;2023-01-27T06:44:46;102679.0;;;5.31;70.27
67430;BME280;54298;52.076;5.264;2023-01-27T06:48:00;102682.0;;;5.4;70.44
67430;BME280;54298;52.076;5.264;2023-01-27T06:49:36;102683.99999999999;;;5.36;70.27
67430;BME280;54298;52.076;5.264;2023-01-27T06:51:12;102681.0;;;5.18;70.12
67430;BME280;54298;52.076;5.264;2023-01-27T06:54:27;102679.0;;;5.24;69.8
67430;BME280;54298;52.076;5.264;2023-01-27T06:56:04;102671.0;;;5.24;70.19
67430;BME280;54298;52.076;5.264;2023-01-27T06:57:40;102672.0;;;5.31;69.87
67430;BME280;54298;52.076;5.264;2023-01-27T06:59:16;102675.0;;;5.38;69.77
67430;BME280;54298;52.076;5.264;2023-01-27T07:02:30;102673.0;;;5.48;69.49
67430;BME280;54298;52.076;5.264;2023-01-27T07:04:06;102670.0;;;5.49;68.94
67430;BME280;54298;52.076;5.264;2023-01-27T07:05:42;102670.0;;;5.39;69.02
67430;BME280;54298;52.076;5.264;2023-01-27T07:08:55;102676.0;;;5.43;68.83
67430;BME280;54298;52.076;5.264;2023-01-27T07:10:31;102676.0;;;5.42;68.61
67430;BME280;54298;52.076;5.264;2023-01-27T07:12:07;102675.0;;;5.54;68.03
67430;BME280;54298;52.076;5.264;2023-01-27T07:15:20;102679.0;;;5.46;68.39
67430;BME280;54298;52.076;5.264;2023-01-27T07:16:56;102682.0;;;5.48;68.45
67430;BME280;54298;52.076;5.264;2023-01-27T07:18:32;102683.99999999999;;;5.52;68.48
67430;BME280;54298;52.076;5.264;2023-01-27T07:20:11;102681.0;;;5.33;68.38
67430;BME280;54298;52.076;5.264;2023-01-27T07:23:24;102684.99999999999;;;5.3;68.31
67430;BME280;54298;52.076;5.264;2023-01-27T07:25:00;102689.00000000001;;;5.17;68.44
67430;BME280;54298;52.076;5.264;2023-01-27T07:26:37;102689.00000000001;;;5.08;68.36
67430;BME280;54298;52.076;5.264;2023-01-27T07:29:49;102689.00000000001;;;5.39;67.98
67430;BME280;54298;52.076;5.264;2023-01-27T07:31:26;102688.00000000001;;;5.3;67.7
67430;BME280;54298;52.076;5.264;2023-01-27T07:33:03;102679.0;;;5.45;67.33
67430;BME280;54298;52.076;5.264;2023-01-27T07:36:16;102691.00000000001;;;5.49;66.91
67430;BME280;54298;52.076;5.264;2023-01-27T07:37:55;102698.0;;;5.31;67.35
67430;BME280;54298;52.076;5.264;2023-01-27T07:39:32;102696.0;;;5.41;66.94
67430;BME280;54298;52.076;5.264;2023-01-27T07:41:09;102695.0;;;5.36;66.98
67430;BME280;54298;52.076;5.264;2023-01-27T07:44:21;102692.0;;;5.47;66.61
67430;BME280;54298;52.076;5.264;2023-01-27T07:45:57;102695.0;;;5.27;67.25
67430;BME280;54298;52.076;5.264;2023-01-27T07:47:33;102699.0;;;5.44;66.92
67430;BME280;54298;52.076;5.264;2023-01-27T07:50:47;102708.0;;;5.3;66.77
67430;BME280;54298;52.076;5.264;2023-01-27T07:52:24;102706.0;;;5.38;66.77
67430;BME280;54298;52.076;5.264;2023-01-27T07:54:01;102711.99999999999;;;5.46;66.69
67430;BME280;54298;52.076;5.264;2023-01-27T07:57:16;102715.00000000001;;;5.44;67.2
67430;BME280;54298;52.076;5.264;2023-01-27T07:58:53;102714.00000000001;;;5.46;67.22
67430;BME280;54298;52.076;5.264;2023-01-27T08:00:30;102714.00000000001;;;5.24;67.5
67430;BME280;54298;52.076;5.264;2023-01-27T08:02:07;102713.00000000001;;;5.47;66.99
67430;BME280;54298;52.076;5.264;2023-01-27T08:05:20;102715.00000000001;;;5.4;67.27
67430;BME280;54298;52.076;5.264;2023-01-27T08:06:57;102728.0;;;5.45;67.22
67430;BME280;54298;52.076;5.264;2023-01-27T08:08:34;102725.0;;;5.55;67.17
67430;BME280;54298;52.076;5.264;2023-01-27T08:11:47;102728.0;;;5.31;67.6
67430;BME280;54298;52.076;5.264;2023-01-27T08:13:23;102728.0;;;5.12;67.67
67430;BME280;54298;52.076;5.264;2023-01-27T08:15:00;102732.0;;;5.18;67.67
67430;BME280;54298;52.076;5.264;2023-01-27T08:16:36;102728.0;;;5.23;67.62
67430;BME280;54298;52.076;5.264;2023-01-27T08:19:51;102724.0;;;5.12;68.05
67430;BME280;54298;52.076;5.264;2023-01-27T08:21:31;102719.0;;;5.15;68.27
67430;BME280;54298;52.076;5.264;2023-01-27T08:23:07;102728.0;;;5.19;67.91
67430;BME280;54298;52.076;5.264;2023-01-27T08:26:20;102719.0;;;4.87;68.67
67430;BME280;54298;52.076;5.264;2023-01-27T08:27:56;102717.0;;;4.92;68.95
67430;BME280;54298;52.076;5.264;2023-01-27T08:29:32;102720.0;;;4.92;69.05
67430;BME280;54298;52.076;5.264;2023-01-27T08:32:48;102724.0;;;4.91;69.58
67430;BME280;54298;52.076;5.264;2023-01-27T08:34:25;102720.0;;;4.78;69.73
67430;BME280;54298;52.076;5.264;2023-01-27T08:36:02;102719.0;;;4.66;70.08
67430;BME280;54298;52.076;5.264;2023-01-27T08:37:40;102722.0;;;4.82;69.89
67430;BME280;54298;52.076;5.264;2023-01-27T08:40:52;102727.0;;;4.92;69.72
67430;BME280;54298;52.076;5.264;2023-01-27T08:42:28;102719.0;;;4.75;70.17
67430;BME280;54298;52.076;5.264;2023-01-27T08:44:05;102731.0;;;4.63;70.47
67430;BME280;54298;52.076;5.264;2023-01-27T08:47:18;102721.0;;;4.75;70.44
67430;BME280;54298;52.076;5.264;2023-01-27T08:48:54;102728.0;;;4.88;70.0
67430;BME280;54298;52.076;5.264;2023-01-27T08:50:31;102733.0;;;4.99;69.83
67430;BME280;54298;52.076;5.264;2023-01-27T08:52:07;102726.0;;;4.82;70.36
67430;BME280;54298;52.076;5.264;2023-01-27T08:55:20;102728.0;;;4.95;70.17
67430;BME280;54298;52.076;5.264;2023-01-27T08:56:57;102731.0;;;4.86;69.98
67430;BME280;54298;52.076;5.264;2023-01-27T08:58:34;102728.0;;;4.86;69.97
67430;BME280;54298;52.076;5.264;2023-01-27T09:01:47;102728.0;;;4.75;70.42
67430;BME280;54298;52.076;5.264;2023-01-27T09:03:25;102733.0;;;4.91;70.03
67430;BME280;54298;52.076;5.264;2023-01-27T09:05:03;102740.00000000001;;;4.82;70.33
67430;BME280;54298;52.076;5.264;2023-01-27T09:08:16;102742.0;;;4.78;70.44
67430;BME280;54298;52.076;5.264;2023-01-27T09:09:52;102756.0;;;4.83;70.33
67430;BME280;54298;52.076;5.264;2023-01-27T09:11:28;102755.0;;;4.78;70.5
67430;BME280;54298;52.076;5.264;2023-01-27T09:13:06;102761.99999999999;;;4.78;70.8
67430;BME280;54298;52.076;5.264;2023-01-27T09:16:19;102766.00000000001;;;4.87;70.49
67430;BME280;54298;52.076;5.264;2023-01-27T09:17:56;102769.0;;;4.82;70.81
67430;BME280;54298;52.076;5.264;2023-01-27T09:19:32;102772.0;;;4.84;70.53
67430;BME280;54298;52.076;5.264;2023-01-27T09:22:45;102772.0;;;4.92;70.48
67430;BME280;54298;52.076;5.264;2023-01-27T09:24:21;102764.00000000001;;;4.87;70.37
67430;BME280;54298;52.076;5.264;2023-01-27T09:25:57;102767.0;;;4.96;69.94
67430;BME280;54298;52.076;5.264;2023-01-27T09:29:10;102769.0;;;5.03;70.03
67430;BME280;54298;52.076;5.264;2023-01-27T09:30:47;102775.0;;;5.19;69.81
67430;BME280;54298;52.076;5.264;2023-01-27T09:32:23;102780.0;;;5.01;69.95
67430;BME280;54298;52.076;5.264;2023-01-27T09:33:59;102776.0;;;4.91;70.11
67430;BME280;54298;52.076;5.264;2023-01-27T09:37:18;102779.0;;;5.16;69.78
67430;BME280;54298;52.076;5.264;2023-01-27T09:38:58;102773.0;;;5.22;69.8
67430;BME280;54298;52.076;5.264;2023-01-27T09:40:46;102773.0;;;5.33;69.59
67430;BME280;54298;52.076;5.264;2023-01-27T09:42:41;102773.0;;;5.42;69.3
67430;BME280;54298;52.076;5.264;2023-01-27T09:44:54;102776.0;;;5.57;68.75
67430;BME280;54298;52.076;5.264;2023-01-27T09:48:26;102776.0;;;5.58;68.8
67430;BME280;54298;52.076;5.264;2023-01-27T09:50:38;102780.0;;;5.44;69.11
67430;BME280;54298;52.076;5.264;2023-01-27T09:52:31;102780.0;;;5.52;69.19
67430;BME280;54298;52.076;5.264;2023-01-27T09:54:27;102780.0;;;5.52;69.28
67430;BME280;54298;52.076;5.264;2023-01-27T09:56:33;102776.0;;;5.43;68.94
67430;BME280;54298;52.076;5.264;2023-01-27T09:58:56;102772.0;;;5.57;68.94
67430;BME280;54298;52.076;5.264;2023-01-27T10:00:54;102777.0;;;5.65;68.77
67430;BME280;54298;52.076;5.264;2023-01-27T10:02:47;102772.0;;;5.7;68.97
67430;BME280;54298;52.076;5.264;2023-01-27T10:04:51;102772.0;;;5.6;69.38
67430;BME280;54298;52.076;5.264;2023-01-27T10:07:48;102773.0;;;5.51;70.12
67430;BME280;54298;52.076;5.264;2023-01-27T10:11:17;102772.0;;;5.68;69.44
67430;BME280;54298;52.076;5.264;2023-01-27T10:13:07;102776.0;;;5.69;69.25
67430;BME280;54298;52.076;5.264;2023-01-27T10:14:56;102770.0;;;5.82;69.2
67430;BME280;54298;52.076;5.264;2023-01-27T10:16:54;102765.00000000001;;;5.67;69.61
67430;BME280;54298;52.076;5.264;2023-01-27T10:18:51;102780.0;;;5.8;68.84
67430;BME280;54298;52.076;5.264;2023-01-27T10:20:40;102783.0;;;5.85;69.08
67430;BME280;54298;52.076;5.264;2023-01-27T10:22:29;102778.0;;;5.81;69.17
67430;BME280;54298;52.076;5.264;2023-01-27T10:24:20;102790.00000000001;;;5.71;69.42
67430;BME280;54298;52.076;5.264;2023-01-27T10:27:57;102786.99999999999;;;5.75;69.44
67430;BME280;54298;52.076;5.264;2023-01-27T10:29:40;102786.99999999999;;;5.73;68.99
67430;BME280;54298;52.076;5.264;2023-01-27T10:31:22;102784.99999999999;;;5.95;68.77
67430;BME280;54298;52.076;5.264;2023-01-27T10:33:12;102786.99999999999;;;5.93;68.66
67430;BME280;54298;52.076;5.264;2023-01-27T10:35:01;102792.0;;;5.87;68.97
67430;BME280;54298;52.076;5.264;2023-01-27T10:36:47;102790.00000000001;;;6.1;68.52
67430;BME280;54298;52.076;5.264;2023-01-27T10:40:19;102792.0;;;5.73;69.19
67430;BME280;54298;52.076;5.264;2023-01-27T10:42:06;102792.0;;;5.93;69.06
67430;BME280;54298;52.076;5.264;2023-01-27T10:43:59;102786.99999999999;;;5.91;69.33
67430;BME280;54298;52.076;5.264;2023-01-27T10:45:48;102794.0;;;6.04;68.88
67430;BME280;54298;52.076;5.264;2023-01-27T10:47:37;102793.0;;;5.84;69.5
67430;BME280;54298;52.076;5.264;2023-01-27T10:49:28;102791.00000000001;;;5.77;69.41
67430;BME280;54298;52.076;5.264;2023-01-27T10:52:54;102790.00000000001;;;5.82;69.19
67430;BME280;54298;52.076;5.264;2023-01-27T10:54:41;102796.0;;;5.88;68.53
67430;BME280;54298;52.076;5.264;2023-01-27T10:56:31;102795.0;;;5.99;67.95
67430;BME280;54298;52.076;5.264;2023-01-27T10:58:15;102800.0;;;5.86;68.66
67430;BME280;54298;52.076;5.264;2023-01-27T11:00:00;102793.0;;;6.0;68.17
67430;BME280;54298;52.076;5.264;2023-01-27T11:03:26;102794.0;;;6.11;67.83
67430;BME280;54298;52.076;5.264;2023-01-27T11:05:08;102790.00000000001;;;5.9;67.97
67430;BME280;54298;52.076;5.264;2023-01-27T11:06:49;102789.00000000001;;;6.02;68.33
67430;BME280;54298;52.076;5.264;2023-01-27T11:08:28;102791.00000000001;;;6.17;67.62
67430;BME280;54298;52.076;5.264;2023-01-27T11:11:54;102789.00000000001;;;6.21;67.99
67430;BME280;54298;52.076;5.264;2023-01-27T11:13:33;102782.0;;;6.12;67.16
67430;BME280;54298;52.076;5.264;2023-01-27T11:15:16;102792.0;;;6.2;67.08
67430;BME280;54298;52.076;5.264;2023-01-27T11:17:00;102792.0;;;6.13;67.22